sensor_id;sensor_type;location;lat;lon;timestamp;pressure;altitude;pressure_sealevel;temperature;humidity
50859;BME280;36826;47.514;19.056;2023-07-09T00:01:42;100559.50;;;31.80;30.27
50859;BME280;36826;47.514;19.056;2023-07-09T00:04:10;100557.97;;;31.57;30.38
50859;BME280;36826;47.514;19.056;2023-07-09T00:06:36;100551.66;;;31.66;30.25
50859;BME280;36826;47.514;19.056;2023-07-09T00:09:01;100559.19;;;31.71;30.51
50859;BME280;36826;47.514;19.056;2023-07-09T00:11:27;100562.06;;;31.97;29.91
50859;BME280;36826;47.514;19.056;2023-07-09T00:13:52;100560.09;;;31.39;30.68
50859;BME280;36826;47.514;19.056;2023-07-09T00:16:21;100561.25;;;31.48;30.43
50859;BME280;36826;47.514;19.056;2023-07-09T00:18:48;100561.63;;;31.25;30.53
50859;BME280;36826;47.514;19.056;2023-07-09T00:21:15;100568.38;;;31.39;30.36
50859;BME280;36826;47.514;19.056;2023-07-09T00:23:41;100555.69;;;31.43;30.41
50859;BME280;36826;47.514;19.056;2023-07-09T00:26:11;100556.09;;;31.25;30.77
50859;BME280;36826;47.514;19.056;2023-07-09T00:28:39;100554.16;;;30.92;31.28
50859;BME280;36826;47.514;19.056;2023-07-09T00:31:10;100551.31;;;30.05;32.58
50859;BME280;36826;47.514;19.056;2023-07-09T00:33:36;100555.84;;;30.39;32.12
50859;BME280;36826;47.514;19.056;2023-07-09T00:36:13;100555.34;;;31.02;31.29
50859;BME280;36826;47.514;19.056;2023-07-09T00:38:39;100559.16;;;31.23;30.50
50859;BME280;36826;47.514;19.056;2023-07-09T00:41:14;100554.25;;;31.35;30.49
50859;BME280;36826;47.514;19.056;2023-07-09T00:43:43;100560.09;;;31.39;30.16
50859;BME280;36826;47.514;19.056;2023-07-09T00:49:03;100550.78;;;31.56;29.99
50859;BME280;36826;47.514;19.056;2023-07-09T00:51:38;100551.31;;;31.15;30.86
50859;BME280;36826;47.514;19.056;2023-07-09T00:54:17;100549.34;;;31.48;30.65
50859;BME280;36826;47.514;19.056;2023-07-09T00:56:46;100553.44;;;31.40;30.59
50859;BME280;36826;47.514;19.056;2023-07-09T00:59:19;100549.03;;;31.39;30.80
50859;BME280;36826;47.514;19.056;2023-07-09T01:01:45;100551.50;;;31.03;30.93
50859;BME280;36826;47.514;19.056;2023-07-09T01:04:15;100552.38;;;31.09;31.03
50859;BME280;36826;47.514;19.056;2023-07-09T01:06:50;100555.13;;;31.41;30.10
50859;BME280;36826;47.514;19.056;2023-07-09T01:09:17;100550.88;;;31.28;30.40
50859;BME280;36826;47.514;19.056;2023-07-09T01:11:43;100549.47;;;31.26;30.39
50859;BME280;36826;47.514;19.056;2023-07-09T01:14:11;100548.44;;;31.37;30.29
50859;BME280;36826;47.514;19.056;2023-07-09T01:16:42;100553.13;;;30.99;31.16
50859;BME280;36826;47.514;19.056;2023-07-09T01:19:08;100550.13;;;31.05;31.05
50859;BME280;36826;47.514;19.056;2023-07-09T01:21:34;100548.22;;;31.11;30.58
50859;BME280;36826;47.514;19.056;2023-07-09T01:24:15;100552.94;;;31.11;31.04
50859;BME280;36826;47.514;19.056;2023-07-09T01:26:40;100556.38;;;30.41;32.01
50859;BME280;36826;47.514;19.056;2023-07-09T01:29:06;100552.81;;;30.68;31.44
50859;BME280;36826;47.514;19.056;2023-07-09T01:31:31;100550.25;;;30.88;30.96
50859;BME280;36826;47.514;19.056;2023-07-09T01:33:57;100555.22;;;30.86;31.05
50859;BME280;36826;47.514;19.056;2023-07-09T01:36:23;100564.00;;;30.78;31.36
50859;BME280;36826;47.514;19.056;2023-07-09T01:38:50;100560.03;;;30.69;31.82
50859;BME280;36826;47.514;19.056;2023-07-09T01:41:17;100559.44;;;30.67;31.94
50859;BME280;36826;47.514;19.056;2023-07-09T01:43:43;100564.63;;;30.58;31.97
50859;BME280;36826;47.514;19.056;2023-07-09T01:46:10;100573.09;;;29.11;35.11
50859;BME280;36826;47.514;19.056;2023-07-09T01:48:38;100581.84;;;29.25;34.53
50859;BME280;36826;47.514;19.056;2023-07-09T01:51:11;100577.34;;;29.92;33.44
50859;BME280;36826;47.514;19.056;2023-07-09T01:53:39;100569.66;;;30.39;32.44
50859;BME280;36826;47.514;19.056;2023-07-09T01:56:05;100568.81;;;30.38;32.15
50859;BME280;36826;47.514;19.056;2023-07-09T01:58:33;100581.03;;;30.70;31.71
50859;BME280;36826;47.514;19.056;2023-07-09T02:00:59;100573.16;;;30.56;31.87
50859;BME280;36826;47.514;19.056;2023-07-09T02:03:24;100573.03;;;30.46;31.73
50859;BME280;36826;47.514;19.056;2023-07-09T02:05:53;100576.88;;;29.78;33.26
50859;BME280;36826;47.514;19.056;2023-07-09T02:08:18;100574.75;;;28.95;34.94
50859;BME280;36826;47.514;19.056;2023-07-09T02:10:45;100583.59;;;30.05;33.00
50859;BME280;36826;47.514;19.056;2023-07-09T02:13:13;100581.66;;;30.27;32.51
50859;BME280;36826;47.514;19.056;2023-07-09T02:15:39;100581.09;;;30.25;32.81
50859;BME280;36826;47.514;19.056;2023-07-09T02:18:11;100588.63;;;30.08;32.95
50859;BME280;36826;47.514;19.056;2023-07-09T02:20:37;100588.22;;;30.21;32.70
50859;BME280;36826;47.514;19.056;2023-07-09T02:23:03;100576.78;;;30.35;32.41
50859;BME280;36826;47.514;19.056;2023-07-09T02:25:28;100584.38;;;30.44;32.25
50859;BME280;36826;47.514;19.056;2023-07-09T02:27:54;100575.03;;;30.51;31.94
50859;BME280;36826;47.514;19.056;2023-07-09T02:30:19;100578.69;;;30.34;32.19
50859;BME280;36826;47.514;19.056;2023-07-09T02:32:45;100577.03;;;30.55;31.86
50859;BME280;36826;47.514;19.056;2023-07-09T02:35:10;100583.78;;;30.42;32.10
50859;BME280;36826;47.514;19.056;2023-07-09T02:37:36;100580.31;;;30.30;32.29
50859;BME280;36826;47.514;19.056;2023-07-09T02:40:02;100583.09;;;30.08;32.37
50859;BME280;36826;47.514;19.056;2023-07-09T02:42:29;100582.03;;;30.36;32.25
50859;BME280;36826;47.514;19.056;2023-07-09T02:44:54;100578.97;;;30.33;32.14
50859;BME280;36826;47.514;19.056;2023-07-09T02:47:20;100577.69;;;30.18;31.96
50859;BME280;36826;47.514;19.056;2023-07-09T02:49:45;100579.75;;;30.06;32.13
50859;BME280;36826;47.514;19.056;2023-07-09T02:52:11;100569.50;;;30.28;31.65
50859;BME280;36826;47.514;19.056;2023-07-09T02:54:36;100580.03;;;30.26;32.01
50859;BME280;36826;47.514;19.056;2023-07-09T02:57:02;100581.16;;;30.30;32.00
50859;BME280;36826;47.514;19.056;2023-07-09T02:59:27;100578.00;;;30.22;32.06
50859;BME280;36826;47.514;19.056;2023-07-09T03:01:55;100580.72;;;30.39;31.76
50859;BME280;36826;47.514;19.056;2023-07-09T03:04:20;100587.13;;;30.22;31.95
50859;BME280;36826;47.514;19.056;2023-07-09T03:06:46;100585.84;;;30.30;31.88
50859;BME280;36826;47.514;19.056;2023-07-09T03:09:12;100590.97;;;30.43;31.40
50859;BME280;36826;47.514;19.056;2023-07-09T03:11:37;100586.34;;;30.49;31.34
50859;BME280;36826;47.514;19.056;2023-07-09T03:14:03;100588.84;;;30.51;31.39
50859;BME280;36826;47.514;19.056;2023-07-09T03:16:32;100591.31;;;31.02;30.56
50859;BME280;36826;47.514;19.056;2023-07-09T03:18:58;100594.59;;;30.99;30.58
50859;BME280;36826;47.514;19.056;2023-07-09T03:21:25;100601.97;;;31.53;29.93
50859;BME280;36826;47.514;19.056;2023-07-09T03:23:52;100595.63;;;31.58;30.27
50859;BME280;36826;47.514;19.056;2023-07-09T03:26:18;100601.13;;;31.95;29.73
50859;BME280;36826;47.514;19.056;2023-07-09T03:28:43;100599.72;;;32.51;28.44
50859;BME280;36826;47.514;19.056;2023-07-09T03:31:09;100603.34;;;32.57;27.85
50859;BME280;36826;47.514;19.056;2023-07-09T03:33:34;100600.47;;;32.26;28.03
50859;BME280;36826;47.514;19.056;2023-07-09T03:36:00;100599.34;;;32.27;28.67
50859;BME280;36826;47.514;19.056;2023-07-09T03:38:26;100598.06;;;32.61;28.46
50859;BME280;36826;47.514;19.056;2023-07-09T03:40:52;100604.97;;;32.48;28.80
50859;BME280;36826;47.514;19.056;2023-07-09T03:43:18;100602.06;;;32.22;28.94
50859;BME280;36826;47.514;19.056;2023-07-09T03:45:45;100600.50;;;32.31;29.03
50859;BME280;36826;47.514;19.056;2023-07-09T03:48:11;100599.41;;;32.48;29.11
50859;BME280;36826;47.514;19.056;2023-07-09T03:50:37;100600.50;;;32.31;29.29
50859;BME280;36826;47.514;19.056;2023-07-09T03:53:03;100592.88;;;32.95;28.96
50859;BME280;36826;47.514;19.056;2023-07-09T03:55:28;100596.22;;;33.23;28.23
50859;BME280;36826;47.514;19.056;2023-07-09T03:57:55;100599.25;;;33.27;27.83
50859;BME280;36826;47.514;19.056;2023-07-09T04:00:21;100597.31;;;33.22;26.85
50859;BME280;36826;47.514;19.056;2023-07-09T04:02:47;100595.13;;;33.45;26.37
50859;BME280;36826;47.514;19.056;2023-07-09T04:05:12;100597.13;;;35.15;24.42
50859;BME280;36826;47.514;19.056;2023-07-09T04:07:38;100600.94;;;37.23;22.19
50859;BME280;36826;47.514;19.056;2023-07-09T04:10:05;100598.97;;;39.00;20.65
50859;BME280;36826;47.514;19.056;2023-07-09T04:12:31;100594.63;;;39.70;19.24
50859;BME280;36826;47.514;19.056;2023-07-09T04:14:57;100595.00;;;41.23;18.55
50859;BME280;36826;47.514;19.056;2023-07-09T04:17:22;100605.59;;;42.04;18.17
50859;BME280;36826;47.514;19.056;2023-07-09T04:19:51;100599.69;;;41.97;18.60
50859;BME280;36826;47.514;19.056;2023-07-09T04:22:16;100602.53;;;41.97;18.77
50859;BME280;36826;47.514;19.056;2023-07-09T04:24:42;100609.47;;;41.91;18.78
50859;BME280;36826;47.514;19.056;2023-07-09T04:27:08;100610.41;;;42.34;18.29
50859;BME280;36826;47.514;19.056;2023-07-09T04:29:34;100605.44;;;40.97;18.75
50859;BME280;36826;47.514;19.056;2023-07-09T04:32:03;100603.25;;;36.63;23.01
50859;BME280;36826;47.514;19.056;2023-07-09T04:34:28;100607.44;;;36.66;23.14
50859;BME280;36826;47.514;19.056;2023-07-09T04:36:54;100611.53;;;37.40;22.65
50859;BME280;36826;47.514;19.056;2023-07-09T04:39:19;100599.53;;;39.56;20.06
50859;BME280;36826;47.514;19.056;2023-07-09T04:41:46;100604.09;;;41.20;18.41
50859;BME280;36826;47.514;19.056;2023-07-09T04:44:12;100604.34;;;42.23;17.00
50859;BME280;36826;47.514;19.056;2023-07-09T04:46:37;100600.81;;;42.35;16.96
50859;BME280;36826;47.514;19.056;2023-07-09T04:49:03;100614.69;;;41.71;17.28
50859;BME280;36826;47.514;19.056;2023-07-09T04:51:28;100610.75;;;43.29;16.38
50859;BME280;36826;47.514;19.056;2023-07-09T04:53:54;100609.66;;;43.92;15.47
50859;BME280;36826;47.514;19.056;2023-07-09T04:56:19;100615.69;;;44.56;14.92
50859;BME280;36826;47.514;19.056;2023-07-09T04:58:45;100611.75;;;41.67;17.75
50859;BME280;36826;47.514;19.056;2023-07-09T05:01:11;100613.34;;;41.12;17.85
50859;BME280;36826;47.514;19.056;2023-07-09T05:03:36;100613.13;;;41.44;17.07
50859;BME280;36826;47.514;19.056;2023-07-09T05:06:04;100616.25;;;41.60;17.37
50859;BME280;36826;47.514;19.056;2023-07-09T05:08:30;100616.38;;;42.96;16.19
50859;BME280;36826;47.514;19.056;2023-07-09T05:10:57;100616.03;;;42.97;15.99
50859;BME280;36826;47.514;19.056;2023-07-09T05:13:23;100615.41;;;43.96;15.75
50859;BME280;36826;47.514;19.056;2023-07-09T05:15:49;100620.06;;;45.55;14.08
50859;BME280;36826;47.514;19.056;2023-07-09T05:18:16;100618.59;;;46.29;13.71
50859;BME280;36826;47.514;19.056;2023-07-09T05:20:42;100625.88;;;47.95;12.77
50859;BME280;36826;47.514;19.056;2023-07-09T05:23:09;100626.59;;;47.45;13.15
50859;BME280;36826;47.514;19.056;2023-07-09T05:25:34;100613.56;;;47.87;12.68
50859;BME280;36826;47.514;19.056;2023-07-09T05:28:00;100615.47;;;49.01;12.18
50859;BME280;36826;47.514;19.056;2023-07-09T05:30:26;100613.16;;;48.42;12.28
50859;BME280;36826;47.514;19.056;2023-07-09T05:32:52;100618.44;;;48.44;12.48
50859;BME280;36826;47.514;19.056;2023-07-09T05:35:19;100610.41;;;49.21;11.56
50859;BME280;36826;47.514;19.056;2023-07-09T05:37:45;100614.75;;;49.46;11.36
50859;BME280;36826;47.514;19.056;2023-07-09T05:40:10;100617.44;;;49.80;11.08
50859;BME280;36826;47.514;19.056;2023-07-09T05:42:36;100617.56;;;49.98;11.02
50859;BME280;36826;47.514;19.056;2023-07-09T05:45:02;100619.94;;;50.48;10.88
50859;BME280;36826;47.514;19.056;2023-07-09T05:47:28;100614.56;;;50.35;10.54
50859;BME280;36826;47.514;19.056;2023-07-09T05:49:53;100619.59;;;49.45;11.47
50859;BME280;36826;47.514;19.056;2023-07-09T05:52:21;100628.56;;;49.06;11.77
50859;BME280;36826;47.514;19.056;2023-07-09T05:54:49;100621.91;;;50.44;11.17
50859;BME280;36826;47.514;19.056;2023-07-09T05:57:15;100628.75;;;51.64;10.04
50859;BME280;36826;47.514;19.056;2023-07-09T05:59:40;100618.69;;;52.66;9.68
50859;BME280;36826;47.514;19.056;2023-07-09T06:02:16;100627.34;;;52.48;9.39
50859;BME280;36826;47.514;19.056;2023-07-09T06:04:43;100623.03;;;51.64;10.26
50859;BME280;36826;47.514;19.056;2023-07-09T06:07:08;100618.88;;;52.26;9.56
50859;BME280;36826;47.514;19.056;2023-07-09T06:09:35;100620.81;;;53.22;8.97
50859;BME280;36826;47.514;19.056;2023-07-09T06:12:01;100622.34;;;54.21;8.81
50859;BME280;36826;47.514;19.056;2023-07-09T06:14:27;100617.25;;;53.56;9.11
50859;BME280;36826;47.514;19.056;2023-07-09T06:16:53;100629.13;;;55.28;7.69
50859;BME280;36826;47.514;19.056;2023-07-09T06:19:18;100630.31;;;54.41;8.47
50859;BME280;36826;47.514;19.056;2023-07-09T06:21:43;100625.38;;;55.03;8.39
50859;BME280;36826;47.514;19.056;2023-07-09T06:24:09;100624.38;;;55.14;8.01
50859;BME280;36826;47.514;19.056;2023-07-09T06:26:35;100631.34;;;55.88;7.58
50859;BME280;36826;47.514;19.056;2023-07-09T06:29:01;100628.06;;;56.30;7.23
50859;BME280;36826;47.514;19.056;2023-07-09T06:31:27;100628.97;;;55.83;7.58
50859;BME280;36826;47.514;19.056;2023-07-09T06:33:53;100625.50;;;56.35;7.19
50859;BME280;36826;47.514;19.056;2023-07-09T06:36:19;100626.16;;;56.80;7.47
50859;BME280;36826;47.514;19.056;2023-07-09T06:38:45;100625.81;;;56.21;7.49
50859;BME280;36826;47.514;19.056;2023-07-09T06:41:11;100618.78;;;56.79;7.16
50859;BME280;36826;47.514;19.056;2023-07-09T06:43:37;100617.78;;;56.49;7.44
50859;BME280;36826;47.514;19.056;2023-07-09T06:46:07;100617.38;;;56.50;7.54
50859;BME280;36826;47.514;19.056;2023-07-09T06:48:33;100619.81;;;56.89;7.39
50859;BME280;36826;47.514;19.056;2023-07-09T06:50:59;100632.22;;;56.85;7.10
50859;BME280;36826;47.514;19.056;2023-07-09T06:53:26;100622.03;;;56.81;7.27
50859;BME280;36826;47.514;19.056;2023-07-09T06:55:52;100617.22;;;57.27;6.96
50859;BME280;36826;47.514;19.056;2023-07-09T06:58:21;100620.72;;;57.02;6.76
50859;BME280;36826;47.514;19.056;2023-07-09T07:00:49;100622.19;;;55.73;7.76
50859;BME280;36826;47.514;19.056;2023-07-09T07:03:15;100624.44;;;56.05;7.45
50859;BME280;36826;47.514;19.056;2023-07-09T07:05:45;100619.09;;;57.34;7.18
50859;BME280;36826;47.514;19.056;2023-07-09T07:08:12;100614.78;;;57.09;7.14
50859;BME280;36826;47.514;19.056;2023-07-09T07:10:38;100618.25;;;56.47;7.07
50859;BME280;36826;47.514;19.056;2023-07-09T07:13:03;100622.09;;;56.00;7.54
50859;BME280;36826;47.514;19.056;2023-07-09T07:15:29;100626.66;;;57.11;6.54
50859;BME280;36826;47.514;19.056;2023-07-09T07:17:55;100622.44;;;56.99;6.37
50859;BME280;36826;47.514;19.056;2023-07-09T07:20:20;100623.34;;;57.29;6.41
50859;BME280;36826;47.514;19.056;2023-07-09T07:22:45;100628.47;;;57.55;6.32
50859;BME280;36826;47.514;19.056;2023-07-09T07:25:11;100616.22;;;57.34;7.00
50859;BME280;36826;47.514;19.056;2023-07-09T07:27:37;100619.69;;;57.75;6.53
50859;BME280;36826;47.514;19.056;2023-07-09T07:30:04;100625.78;;;58.36;6.02
50859;BME280;36826;47.514;19.056;2023-07-09T07:32:29;100620.81;;;58.24;6.02
50859;BME280;36826;47.514;19.056;2023-07-09T07:34:55;100624.56;;;58.63;5.83
50859;BME280;36826;47.514;19.056;2023-07-09T07:37:20;100622.03;;;58.39;6.49
50859;BME280;36826;47.514;19.056;2023-07-09T07:39:49;100623.75;;;58.49;5.72
50859;BME280;36826;47.514;19.056;2023-07-09T07:42:14;100616.56;;;57.69;6.38
50859;BME280;36826;47.514;19.056;2023-07-09T07:44:40;100622.16;;;58.48;6.12
50859;BME280;36826;47.514;19.056;2023-07-09T07:47:06;100620.09;;;56.94;6.38
50859;BME280;36826;47.514;19.056;2023-07-09T07:49:31;100619.03;;;57.21;6.61
50859;BME280;36826;47.514;19.056;2023-07-09T07:51:57;100626.38;;;57.72;6.48
50859;BME280;36826;47.514;19.056;2023-07-09T07:54:22;100617.66;;;57.42;6.32
50859;BME280;36826;47.514;19.056;2023-07-09T07:56:48;100612.22;;;58.49;5.59
50859;BME280;36826;47.514;19.056;2023-07-09T07:59:13;100617.56;;;58.77;5.91
50859;BME280;36826;47.514;19.056;2023-07-09T08:01:40;100611.31;;;55.13;6.86
50859;BME280;36826;47.514;19.056;2023-07-09T08:04:05;100615.75;;;52.81;8.39
50859;BME280;36826;47.514;19.056;2023-07-09T08:06:31;100612.63;;;52.53;8.78
50859;BME280;36826;47.514;19.056;2023-07-09T08:08:57;100615.72;;;52.91;8.76
50859;BME280;36826;47.514;19.056;2023-07-09T08:11:23;100611.16;;;56.12;6.56
50859;BME280;36826;47.514;19.056;2023-07-09T08:13:49;100613.22;;;57.71;5.50
50859;BME280;36826;47.514;19.056;2023-07-09T08:16:15;100612.38;;;57.87;5.43
50859;BME280;36826;47.514;19.056;2023-07-09T08:18:41;100623.34;;;57.92;5.10
50859;BME280;36826;47.514;19.056;2023-07-09T08:21:06;100613.13;;;58.04;5.06
50859;BME280;36826;47.514;19.056;2023-07-09T08:23:32;100616.03;;;58.59;5.16
50859;BME280;36826;47.514;19.056;2023-07-09T08:25:59;100618.31;;;57.34;5.28
50859;BME280;36826;47.514;19.056;2023-07-09T08:28:27;100625.22;;;56.66;5.04
50859;BME280;36826;47.514;19.056;2023-07-09T08:30:53;100607.34;;;56.59;5.13
50859;BME280;36826;47.514;19.056;2023-07-09T08:33:19;100611.31;;;57.51;5.24
50859;BME280;36826;47.514;19.056;2023-07-09T08:35:44;100612.13;;;58.11;5.46
50859;BME280;36826;47.514;19.056;2023-07-09T08:38:10;100617.09;;;58.53;5.11
50859;BME280;36826;47.514;19.056;2023-07-09T08:40:50;100616.63;;;58.54;5.42
50859;BME280;36826;47.514;19.056;2023-07-09T08:43:46;100611.19;;;58.95;4.73
50859;BME280;36826;47.514;19.056;2023-07-09T08:46:33;100605.47;;;57.68;5.29
50859;BME280;36826;47.514;19.056;2023-07-09T08:49:03;100604.72;;;56.07;6.34
50859;BME280;36826;47.514;19.056;2023-07-09T08:51:38;100596.91;;;52.94;7.63
50859;BME280;36826;47.514;19.056;2023-07-09T08:54:13;100594.75;;;49.87;9.07
50859;BME280;36826;47.514;19.056;2023-07-09T08:56:40;100598.78;;;50.56;8.71
50859;BME280;36826;47.514;19.056;2023-07-09T08:59:08;100604.22;;;50.87;8.44
50859;BME280;36826;47.514;19.056;2023-07-09T09:01:54;100605.75;;;52.40;8.08
50859;BME280;36826;47.514;19.056;2023-07-09T09:04:31;100600.03;;;55.26;6.39
50859;BME280;36826;47.514;19.056;2023-07-09T09:09:29;100617.47;;;55.62;6.50
50859;BME280;36826;47.514;19.056;2023-07-09T09:12:20;100602.88;;;55.73;5.87
50859;BME280;36826;47.514;19.056;2023-07-09T09:15:11;100607.75;;;53.70;7.10
50859;BME280;36826;47.514;19.056;2023-07-09T09:17:39;100603.53;;;54.82;6.06
50859;BME280;36826;47.514;19.056;2023-07-09T09:20:09;100598.19;;;54.22;6.33
50859;BME280;36826;47.514;19.056;2023-07-09T09:22:49;100606.13;;;55.75;5.81
50859;BME280;36826;47.514;19.056;2023-07-09T09:25:30;100606.69;;;56.10;6.08
50859;BME280;36826;47.514;19.056;2023-07-09T09:27:56;100599.13;;;56.20;5.79
50859;BME280;36826;47.514;19.056;2023-07-09T09:30:24;100605.56;;;57.81;5.01
50859;BME280;36826;47.514;19.056;2023-07-09T09:32:57;100604.50;;;55.74;5.72
50859;BME280;36826;47.514;19.056;2023-07-09T09:35:29;100604.38;;;57.32;5.35
50859;BME280;36826;47.514;19.056;2023-07-09T09:37:57;100607.16;;;56.29;5.59
50859;BME280;36826;47.514;19.056;2023-07-09T09:40:25;100614.50;;;55.90;5.53
50859;BME280;36826;47.514;19.056;2023-07-09T09:42:53;100599.75;;;54.93;6.01
50859;BME280;36826;47.514;19.056;2023-07-09T09:45:21;100603.94;;;57.17;5.43
50859;BME280;36826;47.514;19.056;2023-07-09T09:47:48;100599.41;;;56.83;5.19
50859;BME280;36826;47.514;19.056;2023-07-09T09:50:21;100607.91;;;57.23;4.77
50859;BME280;36826;47.514;19.056;2023-07-09T09:52:48;100605.94;;;57.66;4.53
50859;BME280;36826;47.514;19.056;2023-07-09T09:55:24;100599.47;;;57.62;5.02
50859;BME280;36826;47.514;19.056;2023-07-09T09:57:52;100596.38;;;57.23;4.92
50859;BME280;36826;47.514;19.056;2023-07-09T10:00:20;100590.44;;;56.97;5.36
50859;BME280;36826;47.514;19.056;2023-07-09T10:02:46;100601.88;;;56.64;5.35
50859;BME280;36826;47.514;19.056;2023-07-09T10:05:16;100591.53;;;57.20;4.53
50859;BME280;36826;47.514;19.056;2023-07-09T10:08:03;100584.59;;;56.07;5.40
50859;BME280;36826;47.514;19.056;2023-07-09T10:10:33;100585.56;;;53.81;6.41
50859;BME280;36826;47.514;19.056;2023-07-09T10:18:32;100582.63;;;53.85;6.25
50859;BME280;36826;47.514;19.056;2023-07-09T10:26:36;100584.03;;;52.50;6.86
50859;BME280;36826;47.514;19.056;2023-07-09T10:34:44;100581.41;;;50.05;8.05
50859;BME280;36826;47.514;19.056;2023-07-09T10:37:30;100588.78;;;51.35;8.02
50859;BME280;36826;47.514;19.056;2023-07-09T10:40:01;100582.81;;;49.22;8.78
50859;BME280;36826;47.514;19.056;2023-07-09T10:42:42;100583.84;;;46.87;9.90
50859;BME280;36826;47.514;19.056;2023-07-09T10:45:13;100578.56;;;46.47;9.43
50859;BME280;36826;47.514;19.056;2023-07-09T10:47:48;100575.97;;;46.02;9.67
50859;BME280;36826;47.514;19.056;2023-07-09T10:50:31;100571.31;;;45.14;10.42
50859;BME280;36826;47.514;19.056;2023-07-09T10:53:04;100573.56;;;47.22;8.98
50859;BME280;36826;47.514;19.056;2023-07-09T10:58:57;100570.44;;;49.03;8.62
50859;BME280;36826;47.514;19.056;2023-07-09T11:01:33;100574.66;;;48.48;8.92
50859;BME280;36826;47.514;19.056;2023-07-09T11:04:04;100561.53;;;47.29;9.35
50859;BME280;36826;47.514;19.056;2023-07-09T11:06:44;100569.72;;;47.84;9.25
50859;BME280;36826;47.514;19.056;2023-07-09T11:09:30;100573.94;;;46.58;10.49
50859;BME280;36826;47.514;19.056;2023-07-09T11:12:04;100563.25;;;46.32;10.34
50859;BME280;36826;47.514;19.056;2023-07-09T11:14:39;100569.94;;;45.88;10.53
50859;BME280;36826;47.514;19.056;2023-07-09T11:17:14;100559.59;;;46.70;10.01
50859;BME280;36826;47.514;19.056;2023-07-09T11:19:45;100552.88;;;47.45;9.59
50859;BME280;36826;47.514;19.056;2023-07-09T11:22:23;100559.47;;;46.24;10.55
50859;BME280;36826;47.514;19.056;2023-07-09T11:25:06;100553.19;;;46.74;10.11
50859;BME280;36826;47.514;19.056;2023-07-09T11:27:32;100556.16;;;47.00;9.96
50859;BME280;36826;47.514;19.056;2023-07-09T11:30:15;100546.81;;;47.70;9.58
50859;BME280;36826;47.514;19.056;2023-07-09T11:32:45;100555.16;;;46.89;9.59
50859;BME280;36826;47.514;19.056;2023-07-09T11:35:23;100554.84;;;45.32;10.86
50859;BME280;36826;47.514;19.056;2023-07-09T11:37:49;100547.25;;;43.81;11.25
50859;BME280;36826;47.514;19.056;2023-07-09T11:40:15;100536.66;;;41.98;12.63
50859;BME280;36826;47.514;19.056;2023-07-09T11:42:50;100547.81;;;42.91;11.88
50859;BME280;36826;47.514;19.056;2023-07-09T11:45:24;100538.75;;;43.19;12.11
50859;BME280;36826;47.514;19.056;2023-07-09T11:47:59;100541.13;;;44.04;11.62
50859;BME280;36826;47.514;19.056;2023-07-09T11:50:39;100543.00;;;44.53;11.36
50859;BME280;36826;47.514;19.056;2023-07-09T11:55:57;100531.44;;;44.87;11.11
50859;BME280;36826;47.514;19.056;2023-07-09T11:58:22;100539.50;;;44.44;11.57
50859;BME280;36826;47.514;19.056;2023-07-09T12:00:54;100536.03;;;44.79;11.44
50859;BME280;36826;47.514;19.056;2023-07-09T12:03:29;100528.78;;;45.23;11.09
50859;BME280;36826;47.514;19.056;2023-07-09T12:06:04;100534.94;;;45.44;10.74
50859;BME280;36826;47.514;19.056;2023-07-09T12:08:36;100529.81;;;45.66;10.72
50859;BME280;36826;47.514;19.056;2023-07-09T12:11:02;100526.81;;;44.95;11.09
50859;BME280;36826;47.514;19.056;2023-07-09T12:13:28;100520.22;;;44.90;11.43
50859;BME280;36826;47.514;19.056;2023-07-09T12:15:54;100523.41;;;43.79;12.30
50859;BME280;36826;47.514;19.056;2023-07-09T12:18:20;100516.19;;;42.73;12.92
50859;BME280;36826;47.514;19.056;2023-07-09T12:20:51;100515.84;;;43.33;12.15
50859;BME280;36826;47.514;19.056;2023-07-09T12:23:25;100515.31;;;44.59;11.31
50859;BME280;36826;47.514;19.056;2023-07-09T12:25:52;100516.44;;;44.70;11.19
50859;BME280;36826;47.514;19.056;2023-07-09T12:28:20;100515.09;;;45.25;11.11
50859;BME280;36826;47.514;19.056;2023-07-09T12:30:51;100507.50;;;45.13;10.43
50859;BME280;36826;47.514;19.056;2023-07-09T12:33:18;100502.38;;;45.34;10.86
50859;BME280;36826;47.514;19.056;2023-07-09T12:35:45;100499.59;;;44.17;11.49
50859;BME280;36826;47.514;19.056;2023-07-09T12:38:19;100492.09;;;44.37;11.47
50859;BME280;36826;47.514;19.056;2023-07-09T12:40:46;100495.44;;;43.74;12.03
50859;BME280;36826;47.514;19.056;2023-07-09T12:43:12;100496.72;;;43.27;12.42
50859;BME280;36826;47.514;19.056;2023-07-09T12:45:38;100492.00;;;44.34;11.48
50859;BME280;36826;47.514;19.056;2023-07-09T12:48:03;100488.59;;;45.01;10.89
50859;BME280;36826;47.514;19.056;2023-07-09T12:50:30;100490.25;;;45.02;11.13
50859;BME280;36826;47.514;19.056;2023-07-09T12:53:12;100487.50;;;45.54;10.97
50859;BME280;36826;47.514;19.056;2023-07-09T12:55:41;100490.88;;;45.75;10.82
50859;BME280;36826;47.514;19.056;2023-07-09T12:58:23;100487.16;;;45.55;11.02
50859;BME280;36826;47.514;19.056;2023-07-09T13:00:51;100483.84;;;44.73;11.43
50859;BME280;36826;47.514;19.056;2023-07-09T13:03:25;100483.25;;;45.12;11.29
50859;BME280;36826;47.514;19.056;2023-07-09T13:05:59;100489.63;;;44.93;11.30
50859;BME280;36826;47.514;19.056;2023-07-09T13:08:27;100482.94;;;45.01;11.10
50859;BME280;36826;47.514;19.056;2023-07-09T13:10:54;100477.13;;;44.21;11.84
50859;BME280;36826;47.514;19.056;2023-07-09T13:13:22;100478.56;;;44.87;11.18
50859;BME280;36826;47.514;19.056;2023-07-09T13:15:57;100470.47;;;45.18;10.87
50859;BME280;36826;47.514;19.056;2023-07-09T13:18:26;100472.16;;;44.58;11.58